sensor_id;sensor_type;location;lat;lon;timestamp;temperature;humidity
25128;DHT22;13107;51.304;6.866;2023-11-21T00:03:22;7.00;99.90
25128;DHT22;13107;51.304;6.866;2023-11-21T00:07:25;7.00;99.90
25128;DHT22;13107;51.304;6.866;2023-11-21T00:11:26;7.10;99.90
25128;DHT22;13107;51.304;6.866;2023-11-21T00:15:28;7.10;99.90
25128;DHT22;13107;51.304;6.866;2023-11-21T00:19:30;7.10;99.90
25128;DHT22;13107;51.304;6.866;2023-11-21T00:23:32;7.20;99.90
25128;DHT22;13107;51.304;6.866;2023-11-21T00:27:33;7.20;99.90
25128;DHT22;13107;51.304;6.866;2023-11-21T00:31:36;7.20;99.90
25128;DHT22;13107;51.304;6.866;2023-11-21T00:35:38;7.30;99.90
25128;DHT22;13107;51.304;6.866;2023-11-21T00:39:39;7.30;99.90
25128;DHT22;13107;51.304;6.866;2023-11-21T00:43:41;7.30;99.90
25128;DHT22;13107;51.304;6.866;2023-11-21T00:47:43;7.20;99.90
25128;DHT22;13107;51.304;6.866;2023-11-21T00:51:45;7.30;99.90
25128;DHT22;13107;51.304;6.866;2023-11-21T00:55:47;7.10;99.90
25128;DHT22;13107;51.304;6.866;2023-11-21T00:59:49;7.00;99.90
25128;DHT22;13107;51.304;6.866;2023-11-21T01:03:51;6.90;99.90
25128;DHT22;13107;51.304;6.866;2023-11-21T01:07:53;6.90;99.90
25128;DHT22;13107;51.304;6.866;2023-11-21T01:11:54;6.80;99.90
25128;DHT22;13107;51.304;6.866;2023-11-21T01:15:57;6.70;99.90
25128;DHT22;13107;51.304;6.866;2023-11-21T01:19:58;6.60;99.90
25128;DHT22;13107;51.304;6.866;2023-11-21T01:24:01;6.40;99.90
25128;DHT22;13107;51.304;6.866;2023-11-21T01:28:02;6.40;99.90
25128;DHT22;13107;51.304;6.866;2023-11-21T01:32:04;6.20;99.90
25128;DHT22;13107;51.304;6.866;2023-11-21T01:36:09;6.10;99.90
25128;DHT22;13107;51.304;6.866;2023-11-21T01:40:12;6.10;99.90
25128;DHT22;13107;51.304;6.866;2023-11-21T01:44:16;6.00;99.90
25128;DHT22;13107;51.304;6.866;2023-11-21T01:48:18;5.90;99.90
25128;DHT22;13107;51.304;6.866;2023-11-21T01:52:20;5.90;99.90
25128;DHT22;13107;51.304;6.866;2023-11-21T01:56:22;5.90;99.90
25128;DHT22;13107;51.304;6.866;2023-11-21T02:00:25;5.90;99.90
25128;DHT22;13107;51.304;6.866;2023-11-21T02:04:29;5.90;99.90
25128;DHT22;13107;51.304;6.866;2023-11-21T02:08:31;5.90;99.90
25128;DHT22;13107;51.304;6.866;2023-11-21T02:12:33;6.00;99.90
25128;DHT22;13107;51.304;6.866;2023-11-21T02:16:36;6.10;99.90
25128;DHT22;13107;51.304;6.866;2023-11-21T02:20:38;6.10;99.90
25128;DHT22;13107;51.304;6.866;2023-11-21T02:24:43;6.20;99.90
25128;DHT22;13107;51.304;6.866;2023-11-21T02:28:44;6.30;99.90
25128;DHT22;13107;51.304;6.866;2023-11-21T02:32:47;6.30;99.90
25128;DHT22;13107;51.304;6.866;2023-11-21T02:36:50;6.30;99.90
25128;DHT22;13107;51.304;6.866;2023-11-21T02:40:52;6.40;99.90
25128;DHT22;13107;51.304;6.866;2023-11-21T02:44:55;6.40;99.90
25128;DHT22;13107;51.304;6.866;2023-11-21T02:48:56;6.50;99.90
25128;DHT22;13107;51.304;6.866;2023-11-21T02:53:00;6.60;99.90
25128;DHT22;13107;51.304;6.866;2023-11-21T02:57:02;6.50;99.90
25128;DHT22;13107;51.304;6.866;2023-11-21T03:01:04;6.60;99.90
25128;DHT22;13107;51.304;6.866;2023-11-21T03:05:07;6.70;99.90
25128;DHT22;13107;51.304;6.866;2023-11-21T03:09:11;6.70;99.90
25128;DHT22;13107;51.304;6.866;2023-11-21T03:13:15;6.70;99.90
25128;DHT22;13107;51.304;6.866;2023-11-21T03:17:17;6.80;99.90
25128;DHT22;13107;51.304;6.866;2023-11-21T03:21:19;6.80;99.90
25128;DHT22;13107;51.304;6.866;2023-11-21T03:25:20;6.80;99.90
25128;DHT22;13107;51.304;6.866;2023-11-21T03:29:25;6.90;99.90
25128;DHT22;13107;51.304;6.866;2023-11-21T03:33:27;6.90;99.90
25128;DHT22;13107;51.304;6.866;2023-11-21T03:37:29;7.00;99.90
25128;DHT22;13107;51.304;6.866;2023-11-21T03:41:31;7.00;99.90
25128;DHT22;13107;51.304;6.866;2023-11-21T03:45:32;7.00;99.90
25128;DHT22;13107;51.304;6.866;2023-11-21T03:49:35;7.00;99.90
25128;DHT22;13107;51.304;6.866;2023-11-21T03:53:36;7.00;99.90
25128;DHT22;13107;51.304;6.866;2023-11-21T03:57:38;7.10;99.90
25128;DHT22;13107;51.304;6.866;2023-11-21T04:01:40;7.00;99.90
25128;DHT22;13107;51.304;6.866;2023-11-21T04:05:41;7.10;99.90
25128;DHT22;13107;51.304;6.866;2023-11-21T04:09:43;7.10;99.90
25128;DHT22;13107;51.304;6.866;2023-11-21T04:13:45;7.10;99.90
25128;DHT22;13107;51.304;6.866;2023-11-21T04:17:48;7.10;99.90
25128;DHT22;13107;51.304;6.866;2023-11-21T04:21:50;7.10;99.90
25128;DHT22;13107;51.304;6.866;2023-11-21T04:25:51;7.00;99.90
25128;DHT22;13107;51.304;6.866;2023-11-21T04:29:55;7.10;99.90
25128;DHT22;13107;51.304;6.866;2023-11-21T04:33:57;7.10;99.90
25128;DHT22;13107;51.304;6.866;2023-11-21T04:37:59;7.10;99.90
25128;DHT22;13107;51.304;6.866;2023-11-21T04:42:00;7.10;99.90
25128;DHT22;13107;51.304;6.866;2023-11-21T04:46:02;7.10;99.90
25128;DHT22;13107;51.304;6.866;2023-11-21T04:50:05;7.20;99.90
25128;DHT22;13107;51.304;6.866;2023-11-21T04:54:07;7.10;99.90
25128;DHT22;13107;51.304;6.866;2023-11-21T04:58:09;7.20;99.90
25128;DHT22;13107;51.304;6.866;2023-11-21T05:02:11;7.10;99.90
25128;DHT22;13107;51.304;6.866;2023-11-21T05:06:33;7.10;99.90
25128;DHT22;13107;51.304;6.866;2023-11-21T05:10:35;7.00;99.90
25128;DHT22;13107;51.304;6.866;2023-11-21T05:14:39;7.10;99.90
25128;DHT22;13107;51.304;6.866;2023-11-21T05:18:41;7.00;99.90
25128;DHT22;13107;51.304;6.866;2023-11-21T05:22:43;7.10;99.90
25128;DHT22;13107;51.304;6.866;2023-11-21T05:26:45;7.10;99.90
25128;DHT22;13107;51.304;6.866;2023-11-21T05:30:47;7.20;99.90
25128;DHT22;13107;51.304;6.866;2023-11-21T05:34:49;7.20;99.90
25128;DHT22;13107;51.304;6.866;2023-11-21T05:38:50;7.30;99.90
25128;DHT22;13107;51.304;6.866;2023-11-21T05:42:52;7.30;99.90
25128;DHT22;13107;51.304;6.866;2023-11-21T05:46:54;7.30;99.90
25128;DHT22;13107;51.304;6.866;2023-11-21T05:50:56;7.40;99.90
25128;DHT22;13107;51.304;6.866;2023-11-21T05:54:57;7.30;99.90
25128;DHT22;13107;51.304;6.866;2023-11-21T05:58:59;7.30;99.90
25128;DHT22;13107;51.304;6.866;2023-11-21T06:03:01;7.30;99.90
25128;DHT22;13107;51.304;6.866;2023-11-21T06:07:03;7.40;99.90
25128;DHT22;13107;51.304;6.866;2023-11-21T06:11:05;7.40;99.90
25128;DHT22;13107;51.304;6.866;2023-11-21T06:15:08;7.40;99.90
25128;DHT22;13107;51.304;6.866;2023-11-21T06:19:11;7.40;99.90
25128;DHT22;13107;51.304;6.866;2023-11-21T06:23:12;7.40;99.90
25128;DHT22;13107;51.304;6.866;2023-11-21T06:27:15;7.50;99.90
25128;DHT22;13107;51.304;6.866;2023-11-21T06:31:17;7.50;99.90
25128;DHT22;13107;51.304;6.866;2023-11-21T06:35:19;7.50;99.90
25128;DHT22;13107;51.304;6.866;2023-11-21T06:39:21;7.50;99.90
25128;DHT22;13107;51.304;6.866;2023-11-21T06:43:24;7.50;99.90
25128;DHT22;13107;51.304;6.866;2023-11-21T06:47:26;7.50;99.90
25128;DHT22;13107;51.304;6.866;2023-11-21T06:51:29;7.60;99.90
25128;DHT22;13107;51.304;6.866;2023-11-21T06:55:31;7.60;99.90
25128;DHT22;13107;51.304;6.866;2023-11-21T06:59:33;7.60;99.90
25128;DHT22;13107;51.304;6.866;2023-11-21T07:03:35;7.70;99.90
25128;DHT22;13107;51.304;6.866;2023-11-21T07:07:39;7.70;99.90
25128;DHT22;13107;51.304;6.866;2023-11-21T07:11:41;7.80;99.90
25128;DHT22;13107;51.304;6.866;2023-11-21T07:15:44;7.70;99.90
25128;DHT22;13107;51.304;6.866;2023-11-21T07:19:46;7.90;99.90
25128;DHT22;13107;51.304;6.866;2023-11-21T07:23:48;8.00;99.90
25128;DHT22;13107;51.304;6.866;2023-11-21T07:27:50;8.10;99.90
25128;DHT22;13107;51.304;6.866;2023-11-21T07:31:52;8.20;99.90
25128;DHT22;13107;51.304;6.866;2023-11-21T07:35:54;8.30;99.90
25128;DHT22;13107;51.304;6.866;2023-11-21T07:39:56;8.30;99.90
25128;DHT22;13107;51.304;6.866;2023-11-21T07:43:58;8.30;99.90
25128;DHT22;13107;51.304;6.866;2023-11-21T07:48:00;8.40;99.90
25128;DHT22;13107;51.304;6.866;2023-11-21T07:52:06;8.40;99.90
25128;DHT22;13107;51.304;6.866;2023-11-21T07:56:09;8.50;99.90
25128;DHT22;13107;51.304;6.866;2023-11-21T08:00:11;8.40;99.90
25128;DHT22;13107;51.304;6.866;2023-11-21T08:04:14;8.40;99.90
25128;DHT22;13107;51.304;6.866;2023-11-21T08:08:15;8.50;99.90
25128;DHT22;13107;51.304;6.866;2023-11-21T08:12:19;8.60;99.90
25128;DHT22;13107;51.304;6.866;2023-11-21T08:16:21;8.60;99.90
25128;DHT22;13107;51.304;6.866;2023-11-21T08:20:23;8.70;99.90
25128;DHT22;13107;51.304;6.866;2023-11-21T08:24:26;8.70;99.90
25128;DHT22;13107;51.304;6.866;2023-11-21T08:28:29;8.70;99.90
25128;DHT22;13107;51.304;6.866;2023-11-21T08:32:31;8.80;99.90
25128;DHT22;13107;51.304;6.866;2023-11-21T08:36:34;8.80;99.90
25128;DHT22;13107;51.304;6.866;2023-11-21T08:40:36;8.80;99.90
25128;DHT22;13107;51.304;6.866;2023-11-21T08:44:38;8.90;99.90
25128;DHT22;13107;51.304;6.866;2023-11-21T08:48:41;8.90;99.90
25128;DHT22;13107;51.304;6.866;2023-11-21T08:52:44;8.80;99.90
25128;DHT22;13107;51.304;6.866;2023-11-21T08:56:47;8.80;99.90
25128;DHT22;13107;51.304;6.866;2023-11-21T09:00:49;8.90;99.90
25128;DHT22;13107;51.304;6.866;2023-11-21T09:04:50;9.00;99.90
25128;DHT22;13107;51.304;6.866;2023-11-21T09:08:54;8.90;99.90
25128;DHT22;13107;51.304;6.866;2023-11-21T09:12:55;8.90;99.90
25128;DHT22;13107;51.304;6.866;2023-11-21T09:16:57;9.00;99.90
25128;DHT22;13107;51.304;6.866;2023-11-21T09:20:59;9.00;99.90
25128;DHT22;13107;51.304;6.866;2023-11-21T09:25:00;9.00;99.90
25128;DHT22;13107;51.304;6.866;2023-11-21T09:29:02;9.00;99.90
25128;DHT22;13107;51.304;6.866;2023-11-21T09:33:04;8.90;99.90
25128;DHT22;13107;51.304;6.866;2023-11-21T09:37:10;9.00;99.90
25128;DHT22;13107;51.304;6.866;2023-11-21T09:41:23;9.00;99.90
25128;DHT22;13107;51.304;6.866;2023-11-21T09:45:34;9.10;99.90
25128;DHT22;13107;51.304;6.866;2023-11-21T09:49:37;9.20;99.90
25128;DHT22;13107;51.304;6.866;2023-11-21T09:53:42;9.30;99.90
25128;DHT22;13107;51.304;6.866;2023-11-21T09:57:46;9.30;99.90
25128;DHT22;13107;51.304;6.866;2023-11-21T10:01:50;9.30;99.90
25128;DHT22;13107;51.304;6.866;2023-11-21T10:05:53;9.40;99.90
25128;DHT22;13107;51.304;6.866;2023-11-21T10:09:55;9.50;99.90
25128;DHT22;13107;51.304;6.866;2023-11-21T10:14:00;9.40;99.90
25128;DHT22;13107;51.304;6.866;2023-11-21T10:18:03;9.30;99.90
25128;DHT22;13107;51.304;6.866;2023-11-21T10:22:06;9.40;99.90
25128;DHT22;13107;51.304;6.866;2023-11-21T10:26:10;9.40;99.90
25128;DHT22;13107;51.304;6.866;2023-11-21T10:30:36;9.30;99.90
25128;DHT22;13107;51.304;6.866;2023-11-21T10:34:39;9.20;99.90
25128;DHT22;13107;51.304;6.866;2023-11-21T10:38:42;9.30;99.90
25128;DHT22;13107;51.304;6.866;2023-11-21T10:42:50;9.40;99.90
25128;DHT22;13107;51.304;6.866;2023-11-21T10:46:53;9.30;99.90
25128;DHT22;13107;51.304;6.866;2023-11-21T10:50:58;9.30;99.90
25128;DHT22;13107;51.304;6.866;2023-11-21T10:55:00;9.30;99.90
25128;DHT22;13107;51.304;6.866;2023-11-21T10:59:05;9.30;99.90
25128;DHT22;13107;51.304;6.866;2023-11-21T11:03:08;9.30;99.90
25128;DHT22;13107;51.304;6.866;2023-11-21T11:07:17;9.40;99.90
25128;DHT22;13107;51.304;6.866;2023-11-21T11:11:19;9.50;99.90
25128;DHT22;13107;51.304;6.866;2023-11-21T11:15:21;9.60;99.90
25128;DHT22;13107;51.304;6.866;2023-11-21T11:19:23;9.60;99.90
25128;DHT22;13107;51.304;6.866;2023-11-21T11:23:56;9.60;99.90
25128;DHT22;13107;51.304;6.866;2023-11-21T11:28:19;9.70;99.90
25128;DHT22;13107;51.304;6.866;2023-11-21T11:36:37;9.90;99.90
25128;DHT22;13107;51.304;6.866;2023-11-21T11:40:46;10.20;99.90
25128;DHT22;13107;51.304;6.866;2023-11-21T11:44:50;10.30;99.90
25128;DHT22;13107;51.304;6.866;2023-11-21T11:49:03;10.40;99.90
25128;DHT22;13107;51.304;6.866;2023-11-21T11:53:15;10.40;99.90
25128;DHT22;13107;51.304;6.866;2023-11-21T11:57:17;10.50;99.90
25128;DHT22;13107;51.304;6.866;2023-11-21T12:01:19;10.50;99.90
25128;DHT22;13107;51.304;6.866;2023-11-21T12:05:22;10.50;99.90
25128;DHT22;13107;51.304;6.866;2023-11-21T12:09:24;10.50;99.90
25128;DHT22;13107;51.304;6.866;2023-11-21T12:13:28;10.50;99.90
25128;DHT22;13107;51.304;6.866;2023-11-21T12:17:30;10.50;99.90
25128;DHT22;13107;51.304;6.866;2023-11-21T12:21:33;10.60;99.90
25128;DHT22;13107;51.304;6.866;2023-11-21T12:25:35;10.50;99.90
25128;DHT22;13107;51.304;6.866;2023-11-21T12:29:40;10.60;99.90
25128;DHT22;13107;51.304;6.866;2023-11-21T12:33:42;10.70;99.90
25128;DHT22;13107;51.304;6.866;2023-11-21T12:37:44;10.80;99.90
25128;DHT22;13107;51.304;6.866;2023-11-21T12:41:45;10.80;99.90
25128;DHT22;13107;51.304;6.866;2023-11-21T12:45:47;10.80;99.90
25128;DHT22;13107;51.304;6.866;2023-11-21T12:49:49;10.80;99.90
25128;DHT22;13107;51.304;6.866;2023-11-21T12:53:52;10.80;99.90
25128;DHT22;13107;51.304;6.866;2023-11-21T12:57:55;10.70;99.90
25128;DHT22;13107;51.304;6.866;2023-11-21T13:01:58;10.60;99.90
25128;DHT22;13107;51.304;6.866;2023-11-21T13:06:01;10.80;99.90
25128;DHT22;13107;51.304;6.866;2023-11-21T13:10:04;10.80;99.90
25128;DHT22;13107;51.304;6.866;2023-11-21T13:14:10;10.60;99.90
25128;DHT22;13107;51.304;6.866;2023-11-21T13:18:12;10.60;99.90
25128;DHT22;13107;51.304;6.866;2023-11-21T13:22:14;10.60;99.90
25128;DHT22;13107;51.304;6.866;2023-11-21T13:26:16;10.50;99.90
25128;DHT22;13107;51.304;6.866;2023-11-21T13:30:18;10.70;99.90
25128;DHT22;13107;51.304;6.866;2023-11-21T13:34:24;10.60;99.90
25128;DHT22;13107;51.304;6.866;2023-11-21T13:38:29;10.40;99.90
25128;DHT22;13107;51.304;6.866;2023-11-21T13:42:34;10.40;99.90
25128;DHT22;13107;51.304;6.866;2023-11-21T13:46:36;10.20;99.90
25128;DHT22;13107;51.304;6.866;2023-11-21T13:50:40;10.20;99.90
25128;DHT22;13107;51.304;6.866;2023-11-21T13:54:50;10.10;99.90
25128;DHT22;13107;51.304;6.866;2023-11-21T13:58:52;10.00;99.90
25128;DHT22;13107;51.304;6.866;2023-11-21T14:02:55;9.90;99.90
25128;DHT22;13107;51.304;6.866;2023-11-21T14:07:02;9.80;99.90
25128;DHT22;13107;51.304;6.866;2023-11-21T14:11:22;9.70;99.90
25128;DHT22;13107;51.304;6.866;2023-11-21T14:15:25;9.70;99.90
25128;DHT22;13107;51.304;6.866;2023-11-21T14:19:27;9.60;99.90
25128;DHT22;13107;51.304;6.866;2023-11-21T14:23:33;9.50;99.90
25128;DHT22;13107;51.304;6.866;2023-11-21T14:27:37;9.40;99.90
25128;DHT22;13107;51.304;6.866;2023-11-21T14:31:39;9.50;99.90
25128;DHT22;13107;51.304;6.866;2023-11-21T14:35:41;9.40;99.90
25128;DHT22;13107;51.304;6.866;2023-11-21T14:39:43;9.40;99.90
25128;DHT22;13107;51.304;6.866;2023-11-21T14:43:49;9.40;99.90
25128;DHT22;13107;51.304;6.866;2023-11-21T14:47:52;9.60;99.90
25128;DHT22;13107;51.304;6.866;2023-11-21T14:52:12;9.50;99.90
25128;DHT22;13107;51.304;6.866;2023-11-21T14:56:34;9.50;99.90
25128;DHT22;13107;51.304;6.866;2023-11-21T15:00:36;9.40;99.90
25128;DHT22;13107;51.304;6.866;2023-11-21T15:04:38;9.40;99.90
25128;DHT22;13107;51.304;6.866;2023-11-21T15:08:41;9.30;99.90
25128;DHT22;13107;51.304;6.866;2023-11-21T15:12:44;9.30;99.90
25128;DHT22;13107;51.304;6.866;2023-11-21T15:16:46;9.30;99.90
25128;DHT22;13107;51.304;6.866;2023-11-21T15:20:52;9.40;99.90
25128;DHT22;13107;51.304;6.866;2023-11-21T15:24:54;9.30;99.90
25128;DHT22;13107;51.304;6.866;2023-11-21T15:28:57;9.40;99.90
25128;DHT22;13107;51.304;6.866;2023-11-21T15:32:59;9.30;99.90
25128;DHT22;13107;51.304;6.866;2023-11-21T15:37:01;9.20;99.90
25128;DHT22;13107;51.304;6.866;2023-11-21T15:41:04;9.20;99.90
25128;DHT22;13107;51.304;6.866;2023-11-21T15:45:08;9.10;99.90
25128;DHT22;13107;51.304;6.866;2023-11-21T15:49:11;8.90;99.90
25128;DHT22;13107;51.304;6.866;2023-11-21T15:53:18;8.80;99.90
25128;DHT22;13107;51.304;6.866;2023-11-21T15:57:20;8.90;99.90
25128;DHT22;13107;51.304;6.866;2023-11-21T16:01:23;8.90;99.90
25128;DHT22;13107;51.304;6.866;2023-11-21T16:05:27;8.90;99.90
25128;DHT22;13107;51.304;6.866;2023-11-21T16:09:29;8.90;99.90
25128;DHT22;13107;51.304;6.866;2023-11-21T16:13:33;8.70;99.90
25128;DHT22;13107;51.304;6.866;2023-11-21T16:17:36;8.60;99.90
25128;DHT22;13107;51.304;6.866;2023-11-21T16:21:37;8.60;99.90
25128;DHT22;13107;51.304;6.866;2023-11-21T16:25:39;8.50;99.90
25128;DHT22;13107;51.304;6.866;2023-11-21T16:29:42;8.50;99.90
25128;DHT22;13107;51.304;6.866;2023-11-21T16:33:43;8.40;99.90
25128;DHT22;13107;51.304;6.866;2023-11-21T16:37:45;8.50;99.90
25128;DHT22;13107;51.304;6.866;2023-11-21T16:41:49;8.40;99.90
25128;DHT22;13107;51.304;6.866;2023-11-21T16:45:51;8.40;99.90
25128;DHT22;13107;51.304;6.866;2023-11-21T16:49:53;8.40;99.90
25128;DHT22;13107;51.304;6.866;2023-11-21T16:53:55;8.40;99.90
25128;DHT22;13107;51.304;6.866;2023-11-21T16:57:56;8.40;99.90
25128;DHT22;13107;51.304;6.866;2023-11-21T17:01:58;8.40;99.90
25128;DHT22;13107;51.304;6.866;2023-11-21T17:06:00;8.20;99.90
25128;DHT22;13107;51.304;6.866;2023-11-21T17:10:02;8.10;99.90
25128;DHT22;13107;51.304;6.866;2023-11-21T17:14:08;7.90;99.90
25128;DHT22;13107;51.304;6.866;2023-11-21T17:18:10;7.90;99.90
25128;DHT22;13107;51.304;6.866;2023-11-21T17:22:12;7.70;99.90
25128;DHT22;13107;51.304;6.866;2023-11-21T17:26:14;7.60;99.90
25128;DHT22;13107;51.304;6.866;2023-11-21T17:30:17;7.60;99.90
25128;DHT22;13107;51.304;6.866;2023-11-21T17:34:20;7.40;99.90
25128;DHT22;13107;51.304;6.866;2023-11-21T17:38:22;7.30;99.90
25128;DHT22;13107;51.304;6.866;2023-11-21T17:42:24;7.30;99.90
25128;DHT22;13107;51.304;6.866;2023-11-21T17:46:26;7.30;99.90
25128;DHT22;13107;51.304;6.866;2023-11-21T17:50:27;7.10;99.90
25128;DHT22;13107;51.304;6.866;2023-11-21T17:54:29;7.10;99.90
25128;DHT22;13107;51.304;6.866;2023-11-21T17:58:31;7.10;99.90
25128;DHT22;13107;51.304;6.866;2023-11-21T18:02:33;7.00;99.90
25128;DHT22;13107;51.304;6.866;2023-11-21T18:06:38;7.10;99.90
25128;DHT22;13107;51.304;6.866;2023-11-21T18:10:40;7.00;99.90
25128;DHT22;13107;51.304;6.866;2023-11-21T18:14:42;6.90;99.90
25128;DHT22;13107;51.304;6.866;2023-11-21T18:18:44;6.90;99.90
25128;DHT22;13107;51.304;6.866;2023-11-21T18:22:46;6.90;99.90
25128;DHT22;13107;51.304;6.866;2023-11-21T18:26:48;6.70;99.90
25128;DHT22;13107;51.304;6.866;2023-11-21T18:30:51;6.70;99.90
25128;DHT22;13107;51.304;6.866;2023-11-21T18:34:53;6.80;99.90
25128;DHT22;13107;51.304;6.866;2023-11-21T18:38:55;6.80;99.90
25128;DHT22;13107;51.304;6.866;2023-11-21T18:42:57;6.80;99.90
25128;DHT22;13107;51.304;6.866;2023-11-21T18:46:58;6.80;99.90
25128;DHT22;13107;51.304;6.866;2023-11-21T18:51:00;6.60;99.90
25128;DHT22;13107;51.304;6.866;2023-11-21T18:55:02;6.60;99.90
25128;DHT22;13107;51.304;6.866;2023-11-21T18:59:05;6.60;99.90
25128;DHT22;13107;51.304;6.866;2023-11-21T19:03:10;6.40;99.90
25128;DHT22;13107;51.304;6.866;2023-11-21T19:07:12;6.30;99.90
25128;DHT22;13107;51.304;6.866;2023-11-21T19:11:16;6.20;99.90
25128;DHT22;13107;51.304;6.866;2023-11-21T19:15:18;6.20;99.90
25128;DHT22;13107;51.304;6.866;2023-11-21T19:19:20;6.10;99.90
25128;DHT22;13107;51.304;6.866;2023-11-21T19:23:22;6.10;99.90
25128;DHT22;13107;51.304;6.866;2023-11-21T19:27:24;6.10;99.90
25128;DHT22;13107;51.304;6.866;2023-11-21T19:31:25;6.10;99.90
25128;DHT22;13107;51.304;6.866;2023-11-21T19:35:27;6.00;99.90
25128;DHT22;13107;51.304;6.866;2023-11-21T19:39:30;5.90;99.90
25128;DHT22;13107;51.304;6.866;2023-11-21T19:43:32;5.90;99.90
25128;DHT22;13107;51.304;6.866;2023-11-21T19:47:35;5.90;99.90
25128;DHT22;13107;51.304;6.866;2023-11-21T19:51:40;5.80;99.90
25128;DHT22;13107;51.304;6.866;2023-11-21T19:55:42;5.80;99.90
25128;DHT22;13107;51.304;6.866;2023-11-21T19:59:44;5.80;99.90
25128;DHT22;13107;51.304;6.866;2023-11-21T20:03:47;5.80;99.90
25128;DHT22;13107;51.304;6.866;2023-11-21T20:07:49;5.80;99.90
25128;DHT22;13107;51.304;6.866;2023-11-21T20:11:51;5.80;99.90
25128;DHT22;13107;51.304;6.866;2023-11-21T20:15:53;5.70;99.90
25128;DHT22;13107;51.304;6.866;2023-11-21T20:19:55;5.70;99.90
25128;DHT22;13107;51.304;6.866;2023-11-21T20:23:57;5.70;99.90
25128;DHT22;13107;51.304;6.866;2023-11-21T20:27:59;5.70;99.90
25128;DHT22;13107;51.304;6.866;2023-11-21T20:32:01;5.80;99.90
25128;DHT22;13107;51.304;6.866;2023-11-21T20:36:03;5.80;99.90
25128;DHT22;13107;51.304;6.866;2023-11-21T20:40:06;5.80;99.90
25128;DHT22;13107;51.304;6.866;2023-11-21T20:44:10;5.90;99.90
25128;DHT22;13107;51.304;6.866;2023-11-21T20:48:12;5.90;99.90
25128;DHT22;13107;51.304;6.866;2023-11-21T20:52:15;5.90;99.90
25128;DHT22;13107;51.304;6.866;2023-11-21T20:56:17;5.80;99.90
25128;DHT22;13107;51.304;6.866;2023-11-21T21:00:20;5.80;99.90
25128;DHT22;13107;51.304;6.866;2023-11-21T21:04:23;5.70;99.90
25128;DHT22;13107;51.304;6.866;2023-11-21T21:08:25;5.70;99.90
25128;DHT22;13107;51.304;6.866;2023-11-21T21:12:27;5.60;99.90
25128;DHT22;13107;51.304;6.866;2023-11-21T21:16:30;5.60;99.90
25128;DHT22;13107;51.304;6.866;2023-11-21T21:20:33;5.60;99.90
25128;DHT22;13107;51.304;6.866;2023-11-21T21:24:35;5.70;99.90
25128;DHT22;13107;51.304;6.866;2023-11-21T21:28:37;5.70;99.90
25128;DHT22;13107;51.304;6.866;2023-11-21T21:32:39;5.70;99.90
25128;DHT22;13107;51.304;6.866;2023-11-21T21:36:40;5.80;99.90
25128;DHT22;13107;51.304;6.866;2023-11-21T21:40:44;5.80;99.90
25128;DHT22;13107;51.304;6.866;2023-11-21T21:44:45;5.80;99.90
25128;DHT22;13107;51.304;6.866;2023-11-21T21:48:47;5.80;99.90
25128;DHT22;13107;51.304;6.866;2023-11-21T21:52:49;5.70;99.90
25128;DHT22;13107;51.304;6.866;2023-11-21T21:56:51;5.70;99.90
25128;DHT22;13107;51.304;6.866;2023-11-21T22:00:52;5.60;99.90
25128;DHT22;13107;51.304;6.866;2023-11-21T22:04:54;5.60;99.90
25128;DHT22;13107;51.304;6.866;2023-11-21T22:08:56;5.50;99.90
25128;DHT22;13107;51.304;6.866;2023-11-21T22:13:00;5.40;99.90
25128;DHT22;13107;51.304;6.866;2023-11-21T22:17:02;5.40;99.90
25128;DHT22;13107;51.304;6.866;2023-11-21T22:21:04;5.40;99.90
25128;DHT22;13107;51.304;6.866;2023-11-21T22:25:07;5.30;99.90
25128;DHT22;13107;51.304;6.866;2023-11-21T22:29:10;5.20;99.90
25128;DHT22;13107;51.304;6.866;2023-11-21T22:33:11;5.20;99.90
25128;DHT22;13107;51.304;6.866;2023-11-21T22:37:15;5.10;99.90
25128;DHT22;13107;51.304;6.866;2023-11-21T22:41:24;4.90;99.90
25128;DHT22;13107;51.304;6.866;2023-11-21T22:45:26;4.90;99.90
25128;DHT22;13107;51.304;6.866;2023-11-21T22:49:29;4.80;99.90
25128;DHT22;13107;51.304;6.866;2023-11-21T22:53:31;4.80;99.90
25128;DHT22;13107;51.304;6.866;2023-11-21T22:57:32;4.90;99.90
25128;DHT22;13107;51.304;6.866;2023-11-21T23:01:34;4.80;99.90
25128;DHT22;13107;51.304;6.866;2023-11-21T23:05:36;4.80;99.90
25128;DHT22;13107;51.304;6.866;2023-11-21T23:09:38;4.70;99.90
25128;DHT22;13107;51.304;6.866;2023-11-21T23:13:40;4.80;99.90
25128;DHT22;13107;51.304;6.866;2023-11-21T23:17:41;4.80;99.90
25128;DHT22;13107;51.304;6.866;2023-11-21T23:21:43;4.80;99.90
25128;DHT22;13107;51.304;6.866;2023-11-21T23:25:45;4.90;99.90
25128;DHT22;13107;51.304;6.866;2023-11-21T23:29:47;5.00;99.90
25128;DHT22;13107;51.304;6.866;2023-11-21T23:33:54;5.00;99.90
25128;DHT22;13107;51.304;6.866;2023-11-21T23:37:56;5.10;99.90
25128;DHT22;13107;51.304;6.866;2023-11-21T23:41:58;5.10;99.90
25128;DHT22;13107;51.304;6.866;2023-11-21T23:46:00;5.10;99.90
25128;DHT22;13107;51.304;6.866;2023-11-21T23:50:04;5.00;99.90
25128;DHT22;13107;51.304;6.866;2023-11-21T23:54:06;5.00;99.90
25128;DHT22;13107;51.304;6.866;2023-11-21T23:58:08;5.00;99.90
